Time;durP1;ratioP1;P1;durP2;ratioP2;P2;SDS_P1;SDS_P2;PMS_P1;PMS_P2;Temp;Humidity;BMP_temperature;BMP_pressure;BME280_temperature;BME280_humidity;BME280_pressure;Samples;Min_cycle;Max_cycle;Signal;HPM_P1;HPM_P2
2024/03/11 00:04:29;;;;;;;35.10;22.80;;;10.40;99.90;;;;;;5017246;28;20470;-81
2024/03/11 00:07:01;;;;;;;34.43;21.10;;;10.40;99.90;;;;;;5008831;28;20551;-81
2024/03/11 00:09:32;;;;;;;36.67;23.57;;;10.40;99.90;;;;;;5016500;28;20474;-81
2024/03/11 00:12:38;;;;;;;35.73;23.23;;;10.30;99.90;;;;;;5011485;28;20460;-81
2024/03/11 00:17:47;;;;;;;36.93;23.50;;;10.30;99.90;;;;;;5008293;28;21023;-83
2024/03/11 00:20:14;;;;;;;35.77;22.73;;;10.30;99.90;;;;;;5002487;28;20460;-83
2024/03/11 00:22:46;;;;;;;38.47;25.97;;;10.30;99.90;;;;;;5001998;28;20541;-81
2024/03/11 00:25:13;;;;;;;38.90;24.47;;;10.30;99.90;;;;;;4998661;28;20511;-82
2024/03/11 00:27:40;;;;;;;36.53;24.57;;;10.20;99.90;;;;;;5001214;28;20451;-83
2024/03/11 00:30:10;;;;;;;37.67;22.83;;;10.20;99.90;;;;;;4998991;28;20456;-82
2024/03/11 00:32:37;;;;;;;34.17;22.50;;;10.20;99.90;;;;;;5000751;28;20452;-82
2024/03/11 00:35:06;;;;;;;33.53;23.23;;;10.20;99.90;;;;;;4996490;28;20495;-81
2024/03/11 00:37:33;;;;;;;37.23;23.37;;;10.10;99.90;;;;;;4997003;28;20486;-81
2024/03/11 00:40:01;;;;;;;38.60;25.47;;;10.10;99.90;;;;;;4990599;28;20543;-81
2024/03/11 00:42:28;;;;;;;37.77;24.70;;;10.10;99.90;;;;;;4996690;28;20456;-82
2024/03/11 00:44:54;;;;;;;38.37;23.43;;;10.00;99.90;;;;;;4995898;28;20547;-81
2024/03/11 00:47:22;;;;;;;34.53;23.40;;;9.90;99.90;;;;;;4995205;28;20459;-82
2024/03/11 00:49:49;;;;;;;41.03;27.40;;;9.90;99.90;;;;;;4994260;28;20454;-83
2024/03/11 00:52:16;;;;;;;41.90;27.20;;;9.80;99.90;;;;;;4996802;28;20474;-82
2024/03/11 00:54:42;;;;;;;40.20;26.43;;;9.80;99.90;;;;;;4996841;28;20517;-83
2024/03/11 00:57:11;;;;;;;42.47;27.60;;;9.80;99.90;;;;;;4997361;28;20846;-83
2024/03/11 00:59:38;;;;;;;43.07;26.00;;;9.80;99.90;;;;;;4998522;28;20898;-82
2024/03/11 01:02:07;;;;;;;39.30;25.10;;;9.80;99.90;;;;;;4997331;28;20457;-84
2024/03/11 01:04:35;;;;;;;41.20;27.17;;;9.70;99.90;;;;;;4996339;28;20915;-82
2024/03/11 01:07:02;;;;;;;42.20;27.80;;;9.70;99.90;;;;;;4995238;28;20975;-82
2024/03/11 01:09:29;;;;;;;40.10;25.20;;;9.60;99.90;;;;;;4995754;28;20463;-82
2024/03/11 01:11:55;;;;;;;37.13;24.70;;;9.60;99.90;;;;;;4996171;28;20458;-82
2024/03/11 01:14:24;;;;;;;43.40;26.90;;;9.60;99.90;;;;;;4996234;28;20593;-82
2024/03/11 01:16:51;;;;;;;40.00;26.23;;;9.60;99.90;;;;;;4995338;28;20500;-83
2024/03/11 01:19:20;;;;;;;39.93;26.30;;;9.60;99.90;;;;;;4990515;28;20462;-83
2024/03/11 01:21:49;;;;;;;45.80;27.07;;;9.60;99.90;;;;;;4995634;28;20494;-83
2024/03/11 01:24:18;;;;;;;42.63;28.43;;;9.60;99.90;;;;;;4995475;28;20861;-84
2024/03/11 01:26:47;;;;;;;40.13;26.40;;;9.60;99.90;;;;;;4997235;28;20532;-84
2024/03/11 01:29:15;;;;;;;41.23;25.50;;;9.60;99.90;;;;;;4997657;28;20558;-83
2024/03/11 01:31:43;;;;;;;41.17;27.17;;;9.60;99.90;;;;;;4997749;28;20938;-85
2024/03/11 01:34:10;;;;;;;41.27;27.50;;;9.60;99.90;;;;;;4995375;28;20487;-83
2024/03/11 01:36:37;;;;;;;40.90;26.70;;;9.60;99.90;;;;;;4996665;28;20483;-83
2024/03/11 01:39:08;;;;;;;40.13;27.00;;;9.50;99.90;;;;;;4996485;28;20489;-85
2024/03/11 01:41:36;;;;;;;37.60;25.57;;;9.50;99.90;;;;;;4996470;28;20462;-84
2024/03/11 01:44:02;;;;;;;42.53;26.50;;;9.50;99.90;;;;;;4995941;28;20537;-85
2024/03/11 01:46:31;;;;;;;43.57;28.03;;;9.50;99.90;;;;;;4996148;28;20490;-84
2024/03/11 01:49:04;;;;;;;43.47;28.30;;;9.40;99.90;;;;;;4995852;28;20506;-83
2024/03/11 01:51:33;;;;;;;44.87;29.47;;;9.40;99.90;;;;;;5000908;28;20455;-83
2024/03/11 01:54:00;;;;;;;46.20;30.17;;;9.40;99.90;;;;;;4996826;28;20514;-84
2024/03/11 01:56:28;;;;;;;46.23;28.70;;;9.40;99.90;;;;;;4998818;28;20917;-83
2024/03/11 01:58:58;;;;;;;45.67;29.87;;;9.30;99.90;;;;;;5000310;28;20457;-82
2024/03/11 02:01:26;;;;;;;45.60;26.70;;;9.30;99.90;;;;;;5000203;28;20517;-84
2024/03/11 02:03:53;;;;;;;40.20;28.73;;;9.30;99.90;;;;;;4999829;28;20485;-85
2024/03/11 02:06:21;;;;;;;43.83;29.53;;;9.40;99.90;;;;;;4999461;28;20568;-84
2024/03/11 02:08:49;;;;;;;44.63;29.93;;;9.30;99.90;;;;;;4999685;28;20435;-83
2024/03/11 02:11:17;;;;;;;41.10;28.37;;;9.40;99.90;;;;;;4999869;28;20452;-85
2024/03/11 02:13:44;;;;;;;51.93;31.40;;;9.40;99.90;;;;;;4999742;28;20526;-84
2024/03/11 02:16:11;;;;;;;46.30;28.97;;;9.40;99.90;;;;;;4999169;28;20494;-84
2024/03/11 02:18:39;;;;;;;44.20;27.67;;;9.40;99.90;;;;;;4999990;28;20458;-83
2024/03/11 02:21:06;;;;;;;46.70;27.80;;;9.40;99.90;;;;;;4999963;28;20462;-84
2024/03/11 02:23:34;;;;;;;50.23;32.30;;;9.40;99.90;;;;;;4999760;28;20973;-83
2024/03/11 02:26:01;;;;;;;45.90;29.40;;;9.30;99.90;;;;;;4999415;28;20511;-82
2024/03/11 02:28:28;;;;;;;47.50;31.00;;;9.20;99.90;;;;;;4999591;28;20922;-82
2024/03/11 02:30:54;;;;;;;42.47;28.07;;;9.20;99.90;;;;;;4999259;28;20455;-82
2024/03/11 02:33:21;;;;;;;46.17;30.77;;;9.30;99.90;;;;;;5000001;28;20457;-83
2024/03/11 02:35:48;;;;;;;53.37;32.20;;;9.30;99.90;;;;;;4998342;28;20865;-83
2024/03/11 02:38:15;;;;;;;45.90;30.93;;;9.30;99.90;;;;;;4999344;28;20465;-84
2024/03/11 02:40:43;;;;;;;46.83;31.40;;;9.30;99.90;;;;;;4998912;28;20469;-84
2024/03/11 02:43:10;;;;;;;43.93;29.30;;;9.30;99.90;;;;;;4998266;28;20455;-84
2024/03/11 02:45:39;;;;;;;44.17;28.23;;;9.30;99.90;;;;;;4998698;28;20761;-84
2024/03/11 02:48:07;;;;;;;43.90;29.63;;;9.20;99.90;;;;;;4998742;28;20524;-84
2024/03/11 02:50:35;;;;;;;44.60;28.87;;;9.30;99.90;;;;;;4999986;28;20457;-82
2024/03/11 02:53:01;;;;;;;47.13;30.93;;;9.30;99.90;;;;;;4999849;28;20453;-82
2024/03/11 02:55:29;;;;;;;50.30;30.47;;;9.30;99.90;;;;;;5001839;28;20554;-84
2024/03/11 02:57:57;;;;;;;47.00;28.83;;;9.30;99.90;;;;;;5000470;28;20458;-81
2024/03/11 03:00:24;;;;;;;48.20;31.37;;;9.30;99.90;;;;;;5001939;28;20892;-82
2024/03/11 03:02:52;;;;;;;44.27;30.63;;;9.30;99.90;;;;;;5001531;28;20465;-84
2024/03/11 03:05:21;;;;;;;50.83;30.20;;;9.30;99.90;;;;;;4994704;28;20473;-83
2024/03/11 03:07:48;;;;;;;48.47;30.63;;;9.30;99.90;;;;;;5000285;28;20512;-82
2024/03/11 03:10:15;;;;;;;46.60;32.30;;;9.30;99.90;;;;;;5002452;28;20529;-84
2024/03/11 03:12:42;;;;;;;51.13;32.33;;;9.30;99.90;;;;;;5002896;28;20447;-82
2024/03/11 03:15:12;;;;;;;50.33;32.93;;;9.30;99.90;;;;;;5001851;28;20580;-81
2024/03/11 03:17:39;;;;;;;48.90;30.73;;;9.30;99.90;;;;;;5004094;28;20455;-82
2024/03/11 03:20:08;;;;;;;45.03;29.57;;;9.30;99.90;;;;;;5005379;28;20462;-80
2024/03/11 03:22:36;;;;;;;50.77;32.70;;;9.30;99.90;;;;;;5005223;28;20512;-81
2024/03/11 03:25:03;;;;;;;53.00;33.70;;;9.40;99.90;;;;;;5006291;28;20492;-80
2024/03/11 03:27:30;;;;;;;45.00;28.93;;;9.30;99.90;;;;;;5006328;28;20534;-82
2024/03/11 03:29:58;;;;;;;58.17;31.67;;;9.40;99.90;;;;;;5006129;28;20522;-80
2024/03/11 03:32:26;;;;;;;54.53;34.40;;;9.40;99.90;;;;;;5006255;28;20467;-84
2024/03/11 03:34:53;;;;;;;56.10;34.50;;;9.30;99.90;;;;;;5007263;28;20488;-82
2024/03/11 03:37:22;;;;;;;52.13;34.10;;;9.30;99.90;;;;;;5003103;28;20986;-83
2024/03/11 03:39:48;;;;;;;49.50;30.97;;;9.20;99.90;;;;;;5007955;28;20492;-84
2024/03/11 03:42:15;;;;;;;49.07;29.57;;;9.30;99.90;;;;;;5008198;28;20452;-83
2024/03/11 03:44:42;;;;;;;56.43;36.23;;;9.30;99.90;;;;;;5009946;28;20541;-83
2024/03/11 03:47:12;;;;;;;60.60;37.03;;;9.20;99.90;;;;;;5009597;28;20489;-86
2024/03/11 03:49:40;;;;;;;52.20;32.20;;;9.20;99.90;;;;;;5008990;28;20822;-81
2024/03/11 03:52:07;;;;;;;55.83;32.70;;;9.20;99.90;;;;;;4998507;28;20894;-79
2024/03/11 03:54:34;;;;;;;50.67;32.63;;;9.20;99.90;;;;;;5000780;28;20505;-82
2024/03/11 03:57:01;;;;;;;49.93;32.97;;;9.20;99.90;;;;;;5002160;28;20466;-80
2024/03/11 03:59:28;;;;;;;52.30;30.93;;;9.30;99.90;;;;;;5000769;28;20462;-81
2024/03/11 04:01:58;;;;;;;49.60;31.53;;;9.20;99.90;;;;;;5000787;28;20464;-81
2024/03/11 04:04:25;;;;;;;53.37;33.33;;;9.20;99.90;;;;;;5000740;28;20458;-81
2024/03/11 04:06:53;;;;;;;47.47;30.53;;;9.20;99.90;;;;;;4999793;28;21026;-81
2024/03/11 04:09:20;;;;;;;49.80;31.93;;;9.30;99.90;;;;;;5001303;28;20454;-80
2024/03/11 04:11:47;;;;;;;50.23;34.03;;;9.20;99.90;;;;;;4999922;28;20464;-81
2024/03/11 04:14:14;;;;;;;49.60;31.77;;;9.20;99.90;;;;;;5001289;28;20830;-80
2024/03/11 04:16:42;;;;;;;50.00;31.90;;;9.20;99.90;;;;;;5000132;28;20512;-81
2024/03/11 04:19:09;;;;;;;49.77;31.43;;;9.20;99.90;;;;;;5000080;28;20468;-82
2024/03/11 04:21:37;;;;;;;51.60;32.80;;;9.30;99.90;;;;;;4999901;28;20461;-83
2024/03/11 04:24:06;;;;;;;48.90;30.60;;;9.30;99.90;;;;;;5003055;28;20452;-81
2024/03/11 04:26:33;;;;;;;48.87;31.20;;;9.30;99.90;;;;;;5003633;28;20500;-81
2024/03/11 04:29:05;;;;;;;50.50;30.60;;;9.30;99.90;;;;;;5000364;28;20470;-80
2024/03/11 04:31:33;;;;;;;54.93;32.33;;;9.30;99.90;;;;;;4999922;28;20521;-81
2024/03/11 04:34:00;;;;;;;50.43;31.07;;;9.30;99.90;;;;;;4999767;28;20454;-81
2024/03/11 04:36:27;;;;;;;50.30;31.00;;;9.30;99.90;;;;;;5007483;28;20506;-81
2024/03/11 04:38:54;;;;;;;46.87;31.93;;;9.30;99.90;;;;;;4999846;28;20497;-81
2024/03/11 04:41:23;;;;;;;49.47;32.10;;;9.30;99.90;;;;;;4999358;28;20466;-82
2024/03/11 04:43:50;;;;;;;50.17;32.93;;;9.30;99.90;;;;;;4998973;28;20450;-82
2024/03/11 04:46:17;;;;;;;51.53;34.20;;;9.40;99.90;;;;;;5004487;28;20562;-82
2024/03/11 04:48:46;;;;;;;49.43;30.80;;;9.40;99.90;;;;;;4998367;28;21022;-79
2024/03/11 04:51:15;;;;;;;50.80;31.33;;;9.40;99.90;;;;;;4998522;28;20458;-79
2024/03/11 04:53:46;;;;;;;50.93;30.80;;;9.40;99.90;;;;;;4998798;28;20454;-79
2024/03/11 04:56:13;;;;;;;47.50;29.97;;;9.40;99.90;;;;;;4999052;28;20551;-79
2024/03/11 04:58:41;;;;;;;49.17;32.03;;;9.40;99.90;;;;;;4999135;28;20835;-80
2024/03/11 05:01:10;;;;;;;48.60;30.00;;;9.40;99.90;;;;;;5006087;28;20450;-79
2024/03/11 05:03:37;;;;;;;52.73;35.40;;;9.40;99.90;;;;;;5005053;28;20540;-80
2024/03/11 05:06:04;;;;;;;59.57;35.70;;;9.30;99.90;;;;;;5006710;28;20581;-79
2024/03/11 05:08:33;;;;;;;53.10;32.67;;;9.30;99.90;;;;;;4999980;28;20531;-79
2024/03/11 05:11:00;;;;;;;50.70;33.30;;;9.30;99.90;;;;;;4999048;28;20470;-80
2024/03/11 05:13:28;;;;;;;51.87;34.03;;;9.30;99.90;;;;;;4998397;28;20454;-81
2024/03/11 05:15:56;;;;;;;56.00;35.97;;;9.30;99.90;;;;;;5006370;28;20504;-78
2024/03/11 05:18:23;;;;;;;54.73;32.87;;;9.30;99.90;;;;;;4998921;28;20565;-81
2024/03/11 05:20:50;;;;;;;57.30;36.70;;;9.30;99.90;;;;;;4998316;28;20985;-80
2024/03/11 05:23:17;;;;;;;57.17;34.87;;;9.30;99.90;;;;;;4997989;28;20464;-82
2024/03/11 05:25:45;;;;;;;50.43;32.70;;;9.30;99.90;;;;;;4998051;28;20477;-80
2024/03/11 05:28:12;;;;;;;53.13;32.93;;;9.30;99.90;;;;;;4997808;28;20903;-81
2024/03/11 05:30:39;;;;;;;51.40;33.27;;;9.30;99.90;;;;;;4997573;28;20828;-81
2024/03/11 05:33:07;;;;;;;49.53;31.77;;;9.30;99.90;;;;;;4999282;28;20466;-81
2024/03/11 05:35:34;;;;;;;50.03;32.73;;;9.30;99.90;;;;;;4996778;28;20523;-80
2024/03/11 05:38:01;;;;;;;53.37;32.43;;;9.40;99.90;;;;;;4997099;28;20841;-80
2024/03/11 05:40:28;;;;;;;52.57;33.87;;;9.30;99.90;;;;;;4997372;28;20962;-82
2024/03/11 05:42:55;;;;;;;49.93;31.77;;;9.40;99.90;;;;;;4997116;28;20462;-81
2024/03/11 05:45:23;;;;;;;59.80;35.30;;;9.40;99.90;;;;;;4996489;28;20485;-80
2024/03/11 05:47:49;;;;;;;55.33;34.10;;;9.40;99.90;;;;;;4998691;28;20850;-80
2024/03/11 05:50:20;;;;;;;53.20;33.43;;;9.40;99.90;;;;;;5001315;28;20468;-81
2024/03/11 05:52:48;;;;;;;52.03;33.00;;;9.40;99.90;;;;;;5000096;28;20489;-85
2024/03/11 05:55:15;;;;;;;55.37;34.60;;;9.40;99.90;;;;;;5003680;28;20486;-85
2024/03/11 05:57:43;;;;;;;48.53;30.93;;;9.40;99.90;;;;;;5002854;28;21049;-85
2024/03/11 06:00:15;;;;;;;54.73;34.17;;;9.40;99.90;;;;;;5009502;28;20455;-85
2024/03/11 06:02:42;;;;;;;49.87;30.93;;;9.40;99.90;;;;;;5000858;28;20840;-81
2024/03/11 06:05:09;;;;;;;51.93;33.50;;;9.40;99.90;;;;;;5008739;28;20564;-80
2024/03/11 06:07:38;;;;;;;48.40;31.77;;;9.40;99.90;;;;;;5009673;28;20468;-81
2024/03/11 06:10:07;;;;;;;52.00;32.77;;;9.40;99.90;;;;;;4996370;28;20844;-82
2024/03/11 06:12:34;;;;;;;49.53;31.50;;;9.40;99.90;;;;;;4993142;28;20458;-81
2024/03/11 06:15:01;;;;;;;48.00;30.87;;;9.50;99.90;;;;;;4993396;28;20923;-82
2024/03/11 06:17:29;;;;;;;52.77;33.90;;;9.50;99.90;;;;;;5001008;28;20553;-83
2024/03/11 06:19:57;;;;;;;51.87;33.90;;;9.50;99.90;;;;;;4995402;28;20487;-80
2024/03/11 06:22:24;;;;;;;55.50;35.73;;;9.50;99.90;;;;;;4993099;28;20461;-83
2024/03/11 06:24:52;;;;;;;57.93;33.50;;;9.50;99.90;;;;;;4994136;28;20469;-81
2024/03/11 06:27:19;;;;;;;55.53;32.33;;;9.40;99.90;;;;;;4997618;28;20810;-82
2024/03/11 06:29:49;;;;;;;55.87;34.33;;;9.40;99.90;;;;;;4997606;28;20447;-82
2024/03/11 06:32:16;;;;;;;46.97;30.73;;;9.40;99.90;;;;;;4993273;28;20458;-82
2024/03/11 06:34:43;;;;;;;51.03;32.43;;;9.50;99.90;;;;;;4993635;28;20470;-81
2024/03/11 06:37:10;;;;;;;46.33;31.20;;;9.40;99.90;;;;;;4995142;28;21089;-82
2024/03/11 06:39:39;;;;;;;49.93;29.87;;;9.40;99.90;;;;;;4992095;28;20520;-81
2024/03/11 06:42:10;;;;;;;50.40;32.07;;;9.50;99.90;;;;;;4995817;28;20462;-81
2024/03/11 06:44:37;;;;;;;47.50;30.20;;;9.50;99.90;;;;;;4994957;28;20483;-81
2024/03/11 06:47:04;;;;;;;49.27;30.27;;;9.50;99.90;;;;;;4992441;28;20474;-79
2024/03/11 06:49:51;;;;;;;48.83;30.50;;;9.50;99.90;;;;;;4990891;28;20465;-83
2024/03/11 06:52:21;;;;;;;49.43;30.10;;;9.60;99.90;;;;;;4990452;28;20968;-80
2024/03/11 06:54:51;;;;;;;50.00;29.50;;;9.60;99.90;;;;;;4990728;28;20486;-84
2024/03/11 06:57:20;;;;;;;47.77;28.60;;;9.60;99.90;;;;;;4989263;28;20501;-78
2024/03/11 06:59:50;;;;;;;45.93;26.37;;;9.60;99.90;;;;;;4992426;28;20460;-80
2024/03/11 07:02:20;;;;;;;45.23;27.77;;;9.70;99.90;;;;;;4991271;28;20530;-77
2024/03/11 07:04:47;;;;;;;45.70;28.17;;;9.70;99.90;;;;;;4992640;28;20994;-77
2024/03/11 07:07:15;;;;;;;46.77;28.60;;;9.70;99.90;;;;;;4994849;28;20478;-80
2024/03/11 07:09:41;;;;;;;44.43;27.20;;;9.70;99.90;;;;;;4996271;28;20561;-80
2024/03/11 07:12:09;;;;;;;46.57;28.27;;;9.60;99.90;;;;;;4993288;28;20491;-80
2024/03/11 07:14:37;;;;;;;45.43;27.73;;;9.60;99.90;;;;;;4998016;28;20549;-82
2024/03/11 07:17:05;;;;;;;42.40;27.20;;;9.60;99.90;;;;;;4996766;28;20494;-81
2024/03/11 07:19:32;;;;;;;47.50;28.33;;;9.60;99.90;;;;;;4998690;28;20497;-81
2024/03/11 07:21:59;;;;;;;43.83;27.00;;;9.60;99.90;;;;;;4998054;28;20453;-82
2024/03/11 07:24:25;;;;;;;47.70;28.07;;;9.70;99.90;;;;;;4996931;28;20939;-82
2024/03/11 07:26:52;;;;;;;46.67;28.10;;;9.70;99.90;;;;;;4996052;28;20971;-81
2024/03/11 07:29:22;;;;;;;53.80;29.67;;;9.70;99.90;;;;;;4996527;28;20461;-82
2024/03/11 07:31:53;;;;;;;46.67;27.90;;;9.60;99.90;;;;;;4996097;28;20473;-80
2024/03/11 07:34:21;;;;;;;43.97;26.80;;;9.70;99.90;;;;;;4996110;28;20986;-79
2024/03/11 07:36:48;;;;;;;46.70;28.10;;;9.70;99.90;;;;;;4997438;28;20518;-79
2024/03/11 07:39:15;;;;;;;50.63;29.40;;;9.70;99.90;;;;;;5000378;28;20473;-81
2024/03/11 07:41:42;;;;;;;53.77;29.50;;;9.70;99.90;;;;;;5001617;28;20459;-81
2024/03/11 07:44:09;;;;;;;45.10;25.73;;;9.70;99.90;;;;;;4996705;28;20454;-80
2024/03/11 07:46:36;;;;;;;44.50;25.07;;;9.70;99.90;;;;;;5001623;28;20891;-81
2024/03/11 07:49:05;;;;;;;45.13;26.97;;;9.70;99.90;;;;;;4999530;28;20469;-81
2024/03/11 07:51:31;;;;;;;45.70;27.57;;;9.60;99.90;;;;;;4995007;28;20465;-80
2024/03/11 07:53:58;;;;;;;50.50;28.77;;;9.50;99.90;;;;;;4994868;28;20463;-82
2024/03/11 07:56:25;;;;;;;60.20;31.87;;;9.50;99.90;;;;;;4994636;28;20493;-81
2024/03/11 07:58:52;;;;;;;52.57;29.77;;;9.50;99.90;;;;;;4996281;28;20455;-80
2024/03/11 08:01:21;;;;;;;46.97;30.07;;;9.50;99.90;;;;;;5003171;28;20457;-78
2024/03/11 08:03:48;;;;;;;56.03;31.23;;;9.50;99.90;;;;;;4998091;28;20550;-80
2024/03/11 08:06:18;;;;;;;54.23;29.80;;;9.50;99.90;;;;;;4999766;28;20481;-82
2024/03/11 08:08:45;;;;;;;48.17;28.60;;;9.60;99.90;;;;;;4998086;28;20466;-82
2024/03/11 08:11:12;;;;;;;53.03;31.57;;;9.60;99.90;;;;;;4995060;28;20462;-81
2024/03/11 08:13:41;;;;;;;48.67;28.30;;;9.50;99.90;;;;;;4995983;28;20447;-81
2024/03/11 08:16:09;;;;;;;46.17;27.20;;;9.50;99.90;;;;;;4995512;28;20485;-80
2024/03/11 08:18:36;;;;;;;48.13;27.97;;;9.50;99.90;;;;;;4995878;28;20846;-79
2024/03/11 08:21:03;;;;;;;52.97;30.87;;;9.50;99.90;;;;;;4996087;28;20478;-81
2024/03/11 08:23:31;;;;;;;48.53;26.67;;;9.40;99.90;;;;;;4997901;28;20458;-80
2024/03/11 08:25:59;;;;;;;52.17;26.97;;;9.30;99.90;;;;;;4997535;28;20482;-79
2024/03/11 08:28:26;;;;;;;48.00;27.40;;;9.30;99.90;;;;;;4997621;28;20465;-79
2024/03/11 08:30:53;;;;;;;50.40;27.47;;;9.30;99.90;;;;;;4997718;28;20536;-81
2024/03/11 08:33:20;;;;;;;44.10;26.50;;;9.30;99.90;;;;;;4996197;28;20466;-80
2024/03/11 08:35:47;;;;;;;45.47;28.60;;;9.30;99.90;;;;;;4997273;28;20508;-81
2024/03/11 08:38:14;;;;;;;51.13;27.03;;;9.30;99.90;;;;;;5005690;28;20584;-80
2024/03/11 08:40:42;;;;;;;47.40;26.80;;;9.30;99.90;;;;;;4998305;28;20465;-81
2024/03/11 08:43:09;;;;;;;47.37;26.20;;;9.30;99.90;;;;;;4997372;28;20530;-79
2024/03/11 08:45:36;;;;;;;48.57;26.60;;;9.40;99.90;;;;;;4999820;28;20874;-80
2024/03/11 08:48:03;;;;;;;39.47;23.07;;;9.40;99.90;;;;;;4996761;28;20466;-80
2024/03/11 08:50:30;;;;;;;38.23;21.90;;;9.40;99.90;;;;;;5003426;28;20446;-80
2024/03/11 08:52:58;;;;;;;37.10;23.67;;;9.40;99.90;;;;;;5000989;28;20458;-79
2024/03/11 08:55:25;;;;;;;34.20;21.83;;;9.40;99.90;;;;;;5004102;28;20507;-79
2024/03/11 08:57:58;;;;;;;33.17;19.57;;;9.40;99.90;;;;;;4997633;28;20528;-81
2024/03/11 09:00:27;;;;;;;33.50;20.33;;;9.40;99.90;;;;;;5003402;28;21036;-79
2024/03/11 09:02:54;;;;;;;36.30;23.33;;;9.40;99.90;;;;;;5000164;28;20465;-80
2024/03/11 09:05:22;;;;;;;34.43;21.53;;;9.50;99.90;;;;;;4997588;28;20475;-78
2024/03/11 09:07:50;;;;;;;37.60;23.50;;;9.50;99.90;;;;;;4997857;28;20461;-81
2024/03/11 09:10:18;;;;;;;36.07;22.50;;;9.50;99.90;;;;;;4998993;28;20896;-80
2024/03/11 09:12:44;;;;;;;32.90;21.43;;;9.50;99.90;;;;;;5007470;28;20449;-81
2024/03/11 09:15:15;;;;;;;31.80;21.10;;;9.50;99.90;;;;;;4998861;28;20507;-79
2024/03/11 09:17:42;;;;;;;36.87;21.83;;;9.50;99.90;;;;;;4998568;28;20557;-80
2024/03/11 09:20:15;;;;;;;36.60;22.33;;;9.40;99.90;;;;;;4998928;28;20962;-81
2024/03/11 09:22:45;;;;;;;37.60;23.53;;;9.50;99.90;;;;;;4998232;28;20466;-80
2024/03/11 09:25:15;;;;;;;37.80;23.07;;;9.50;99.90;;;;;;4998456;28;20485;-79
2024/03/11 09:27:42;;;;;;;36.77;23.97;;;9.50;99.90;;;;;;4998526;28;20457;-80
2024/03/11 09:30:11;;;;;;;41.10;24.87;;;9.50;99.90;;;;;;5002006;28;20490;-82
2024/03/11 09:32:39;;;;;;;41.30;24.50;;;9.40;99.90;;;;;;5002736;28;20883;-81
2024/03/11 09:35:09;;;;;;;42.10;24.70;;;9.40;99.90;;;;;;5000804;28;20843;-80
2024/03/11 09:37:39;;;;;;;57.67;35.77;;;9.50;99.90;;;;;;4996928;28;20575;-79
2024/03/11 09:40:09;;;;;;;47.67;27.23;;;9.40;99.90;;;;;;5008927;28;20912;-80
2024/03/11 09:42:37;;;;;;;51.00;29.27;;;9.40;99.90;;;;;;5006894;28;20462;-80
2024/03/11 09:45:07;;;;;;;50.83;29.27;;;9.40;99.90;;;;;;4995072;28;20578;-80
2024/03/11 09:47:34;;;;;;;48.20;28.07;;;9.40;99.90;;;;;;5003695;28;20496;-80
2024/03/11 09:50:02;;;;;;;47.43;30.50;;;9.40;99.90;;;;;;5002581;28;20469;-80
2024/03/11 09:52:33;;;;;;;51.77;30.07;;;9.40;99.90;;;;;;5001937;28;20465;-80
2024/03/11 09:54:59;;;;;;;60.10;33.37;;;9.30;99.90;;;;;;4994307;28;20486;-80
2024/03/11 09:57:27;;;;;;;56.63;30.47;;;9.30;99.90;;;;;;5003036;28;20503;-79
2024/03/11 09:59:55;;;;;;;51.53;30.03;;;9.30;99.90;;;;;;5005539;28;20542;-81
2024/03/11 10:02:26;;;;;;;56.97;30.87;;;9.40;99.90;;;;;;5015094;28;20460;-80
2024/03/11 10:04:54;;;;;;;48.57;28.50;;;9.30;99.90;;;;;;5003929;28;20575;-81
2024/03/11 10:07:23;;;;;;;47.23;28.40;;;9.30;99.90;;;;;;4996275;28;20480;-81
2024/03/11 10:09:50;;;;;;;45.37;25.90;;;9.40;99.90;;;;;;4995567;28;20475;-81
2024/03/11 10:12:19;;;;;;;46.73;26.13;;;9.50;99.90;;;;;;4996772;28;20928;-81
2024/03/11 10:14:47;;;;;;;46.23;26.13;;;9.40;99.90;;;;;;4995961;28;20521;-80
2024/03/11 10:17:22;;;;;;;45.43;26.50;;;9.40;99.90;;;;;;5001220;28;20502;-79
2024/03/11 10:19:54;;;;;;;48.83;28.27;;;9.50;99.90;;;;;;5005019;28;20486;-81
2024/03/11 10:22:28;;;;;;;53.70;31.43;;;9.60;99.90;;;;;;5004273;28;21127;-79
2024/03/11 10:24:56;;;;;;;50.77;27.90;;;9.60;99.90;;;;;;5003948;28;20477;-81
2024/03/11 10:27:24;;;;;;;46.97;29.10;;;9.70;99.90;;;;;;5000892;28;20557;-80
2024/03/11 10:29:54;;;;;;;54.83;30.50;;;9.60;99.90;;;;;;5008917;28;20446;-81
2024/03/11 10:32:34;;;;;;;52.23;29.73;;;9.70;99.90;;;;;;5005713;28;20480;-80
2024/03/11 10:35:02;;;;;;;52.77;29.10;;;9.60;99.90;;;;;;5005083;28;20561;-80
2024/03/11 10:37:30;;;;;;;49.63;27.50;;;9.60;99.90;;;;;;5006443;28;20495;-81
2024/03/11 10:40:00;;;;;;;55.83;28.97;;;9.80;99.90;;;;;;5007712;28;20526;-81
2024/03/11 10:42:28;;;;;;;46.73;27.10;;;9.90;99.90;;;;;;5003569;28;20453;-81
2024/03/11 10:44:57;;;;;;;45.27;25.47;;;10.00;99.90;;;;;;5020754;23;20518;-81
2024/03/11 10:47:24;;;;;;;49.40;24.23;;;10.10;99.90;;;;;;5001906;28;20455;-80
2024/03/11 10:49:53;;;;;;;44.63;26.17;;;10.00;99.90;;;;;;5003217;28;20474;-80
2024/03/11 10:52:22;;;;;;;47.00;25.63;;;10.00;99.90;;;;;;5003004;28;20449;-80
2024/03/11 10:54:54;;;;;;;38.90;23.23;;;9.90;99.90;;;;;;5002592;28;20489;-80
2024/03/11 10:57:34;;;;;;;44.40;26.57;;;10.00;99.90;;;;;;5001733;28;20960;-81
2024/03/11 11:00:09;;;;;;;43.70;25.07;;;10.00;99.90;;;;;;4999637;28;20454;-80
2024/03/11 11:02:41;;;;;;;42.00;25.70;;;10.00;99.90;;;;;;5001220;28;20485;-80
2024/03/11 11:05:09;;;;;;;40.80;22.67;;;10.00;99.90;;;;;;4999749;28;20836;-80
2024/03/11 11:07:36;;;;;;;43.00;26.90;;;10.00;99.90;;;;;;4999865;28;20462;-79
2024/03/11 11:10:07;;;;;;;44.60;26.00;;;9.90;99.90;;;;;;5001104;28;20578;-80
2024/03/11 11:12:36;;;;;;;40.10;24.83;;;10.00;99.90;;;;;;4999905;28;20548;-80
2024/03/11 11:15:05;;;;;;;38.70;21.43;;;10.10;99.90;;;;;;4999555;28;20521;-82
2024/03/11 11:17:37;;;;;;;35.03;21.57;;;10.10;99.90;;;;;;5001814;28;20494;-81
2024/03/11 11:20:29;;;;;;;31.07;19.63;;;10.10;99.90;;;;;;4999764;28;20481;-82
2024/03/11 11:22:59;;;;;;;29.57;18.97;;;10.10;99.90;;;;;;5000955;28;20446;-80
2024/03/11 11:25:39;;;;;;;30.40;17.40;;;10.10;99.90;;;;;;4993529;28;20839;-80
2024/03/11 11:28:08;;;;;;;32.60;20.43;;;10.10;99.90;;;;;;4992661;28;20978;-80
2024/03/11 11:30:36;;;;;;;29.40;18.37;;;10.00;99.90;;;;;;4997724;28;20458;-81
2024/03/11 11:33:03;;;;;;;31.50;18.97;;;10.00;99.90;;;;;;4998147;28;20466;-80
2024/03/11 11:35:34;;;;;;;32.20;20.27;;;9.90;99.90;;;;;;4998741;28;20468;-80
2024/03/11 11:38:27;;;;;;;35.47;21.27;;;9.80;99.90;;;;;;4996765;28;20486;-80
2024/03/11 11:40:56;;;;;;;32.97;20.13;;;9.60;99.90;;;;;;4992050;28;20458;-80
2024/03/11 11:43:44;;;;;;;34.73;21.20;;;9.60;99.90;;;;;;4996109;28;20457;-81
2024/03/11 11:46:11;;;;;;;32.30;21.07;;;9.50;99.90;;;;;;4995419;28;20485;-80
2024/03/11 11:48:39;;;;;;;33.77;21.00;;;9.50;99.90;;;;;;4997163;28;20455;-81
2024/03/11 11:51:06;;;;;;;32.43;18.93;;;9.50;99.90;;;;;;4997351;28;20542;-80
2024/03/11 11:53:35;;;;;;;33.67;20.37;;;9.60;99.90;;;;;;4997591;28;20502;-81
2024/03/11 11:56:05;;;;;;;34.83;20.53;;;9.60;99.90;;;;;;4996705;28;20486;-80
2024/03/11 11:58:32;;;;;;;32.03;20.97;;;9.60;99.90;;;;;;4996583;28;20483;-80
2024/03/11 12:01:01;;;;;;;33.30;19.17;;;9.70;99.90;;;;;;4995278;28;20465;-81
2024/03/11 12:03:34;;;;;;;27.70;17.10;;;9.70;99.90;;;;;;4997259;28;20458;-81
2024/03/11 12:06:09;;;;;;;26.47;16.57;;;9.70;99.90;;;;;;4995191;28;20481;-80
2024/03/11 12:08:36;;;;;;;29.13;18.17;;;9.80;99.90;;;;;;4997157;28;20831;-80
2024/03/11 12:11:14;;;;;;;27.37;17.30;;;9.80;99.90;;;;;;4996090;28;20517;-82
2024/03/11 12:13:43;;;;;;;27.47;17.70;;;10.00;99.90;;;;;;4996761;28;20819;-81
2024/03/11 12:16:11;;;;;;;30.23;18.83;;;10.10;99.90;;;;;;4994482;28;20542;-81
2024/03/11 12:18:41;;;;;;;30.53;18.33;;;10.30;99.90;;;;;;4991195;28;20499;-81
2024/03/11 12:21:11;;;;;;;27.53;17.10;;;10.30;99.90;;;;;;4992785;28;20478;-80
2024/03/11 12:23:38;;;;;;;27.00;15.70;;;10.40;99.90;;;;;;4993791;28;20450;-80
2024/03/11 12:26:09;;;;;;;27.83;16.57;;;10.40;99.90;;;;;;4990303;28;20504;-81
2024/03/11 12:28:43;;;;;;;23.87;14.23;;;10.30;99.90;;;;;;4991095;28;20518;-80
2024/03/11 12:31:15;;;;;;;23.20;12.73;;;10.30;99.90;;;;;;4994753;28;20482;-80
2024/03/11 12:33:44;;;;;;;22.63;13.20;;;10.30;99.90;;;;;;4997226;28;20487;-81
2024/03/11 12:36:12;;;;;;;24.13;15.20;;;10.10;99.90;;;;;;4995464;28;20525;-80
2024/03/11 12:38:39;;;;;;;26.03;14.77;;;9.90;99.90;;;;;;4994711;28;20486;-81
2024/03/11 12:41:05;;;;;;;30.77;17.03;;;9.90;99.90;;;;;;4997060;28;20533;-81
2024/03/11 12:43:35;;;;;;;21.07;13.93;;;10.10;99.90;;;;;;4993968;28;20457;-81
2024/03/11 12:46:03;;;;;;;22.97;13.87;;;10.10;99.90;;;;;;4996194;28;20483;-82
2024/03/11 12:48:31;;;;;;;19.83;12.67;;;10.20;99.90;;;;;;4996217;28;20455;-81